Aérodrome :







RETROUVEZ-NOUS SUR...

 
LOGIN :

S'inscrire | Disclaimer

   EN    FR    IT 

 









Légende :    VFR   VFR Marginal   IFR   IFR Intensif   IFR Très Intensif
Visi : 
Plafond : 
>= 8 km
>= 3000ft
5 à 8 km
1000 à 3000 ft
1500m à 5 km
500 à 1000 ft
800 à 1500m
200 à 500 ft
< 800m
< 200 ft
Symboles :   Orages  Brouillard  Fortes neiges  Fortes précipitations  Vent > 20 kt






- Altitude de l'aérodrome : 199 ft
- Code IATA : YRQ


CYRQ - Trois-Rivières

DERNIER METAR :
  • 200437Z AUTO 03004KT 2 1/2SM BR BKN005 OVC010 M00/M01 A2992 RMK SLP136

METARs EXPIRÉS :
  • 200409Z AUTO 02004KT 2 1/2SM -SN BKN005 OVC010 M00/M01 A2991 RMK SLP135
  • 200400Z AUTO 02004KT 2 1/4SM -SN SCT005 OVC010 M00/M01 A2991 RMK SLP134
  • 200315Z AUTO 04003KT 2 1/2SM -SN OVC010 M00/M01 A2991 RMK SLP135
  • 200300Z AUTO 36003KT 5SM -SN OVC008 M00/M01 A2992 RMK SLP136
  • 200258Z AUTO 36003KT 5SM -SN OVC008 M00/M01 A2992 RMK SLP137
  • 200229Z AUTO VRB02KT 7SM -SN OVC008 M00/M01 A2992 RMK SLP138
  • 200200Z AUTO 01003KT 6SM BR OVC012 M00/M01 A2991 RMK SLP134

TAF TAF CYRQ
Valide du 20 à 02h jusqu'au 20 à 14h UTC


200138Z 2002/2014 VRB03KT 6SM BR OVC015
TEMPO 2002/2014 11/2SM -SN BR BKN007 OVC015
PROB30 2002/2014 1SM -FZRA -FZDZ BR OVC004 RMK FCST BASED ON AUTO OBS. NXT FCST BY 200800Z



MET'MAP, la Météo Aéronautique d'un coup d'oeil ! - Copyright ORBIFLY Décembre 2007 - Disclaimer

ORBIFLY MET'MAP TEAM :

Programmation & Développement : Alexandra Zaïnal
Conception & Développement : Baudouin d'Aumeries
Co-Programmation & Développement : Marc-Olivier Méhu
Soutien technique & logistique : Manuel Goepfert

Contact : metmap@orbifly.com




SOURCES & CREDITS :

   NOAA